Time;durP1;ratioP1;P1;durP2;ratioP2;P2;SDS_P1;SDS_P2;PMS_P1;PMS_P2;Temp;Humidity;BMP_temperature;BMP_pressure;BME280_temperature;BME280_humidity;BME280_pressure;Samples;Min_cycle;Max_cycle;Signal;HPM_P1;HPM_P2
2024/01/16 00:03:14;;;;;;;9.95;6.97;;;1.10;99.90;;;;;;7338601;32;20155;-57
2024/01/16 00:07:16;;;;;;;10.77;6.68;;;1.10;99.90;;;;;;7338991;32;20281;-57
2024/01/16 00:11:17;;;;;;;8.43;6.22;;;1.10;99.90;;;;;;7343897;32;20502;-56
2024/01/16 00:15:19;;;;;;;14.07;6.93;;;1.10;99.90;;;;;;7344174;32;20121;-56
2024/01/16 00:19:21;;;;;;;14.43;6.40;;;1.20;99.90;;;;;;7341123;32;20243;-56
2024/01/16 00:23:22;;;;;;;10.02;5.70;;;1.20;99.90;;;;;;7337518;32;20186;-56
2024/01/16 00:27:25;;;;;;;9.75;4.68;;;1.20;99.90;;;;;;7341071;32;20149;-56
2024/01/16 00:31:26;;;;;;;11.63;4.82;;;1.10;99.90;;;;;;7337998;32;20118;-55
2024/01/16 00:35:29;;;;;;;9.82;4.05;;;1.10;99.90;;;;;;7340952;32;20166;-55
2024/01/16 00:39:31;;;;;;;6.97;3.25;;;1.10;99.90;;;;;;7341905;32;20252;-55
2024/01/16 00:43:35;;;;;;;7.75;4.03;;;1.10;99.90;;;;;;7343026;32;20135;-56
2024/01/16 00:47:36;;;;;;;5.25;3.12;;;1.20;99.90;;;;;;7343163;32;20224;-55
2024/01/16 00:51:38;;;;;;;5.93;3.08;;;1.20;99.90;;;;;;7338869;32;20120;-56
2024/01/16 00:55:40;;;;;;;6.12;3.15;;;1.20;99.90;;;;;;7337917;32;20099;-54
2024/01/16 00:59:42;;;;;;;6.15;3.17;;;1.30;99.90;;;;;;7345554;32;20107;-55
2024/01/16 01:03:44;;;;;;;8.00;3.70;;;1.20;99.90;;;;;;7341277;32;20458;-56
2024/01/16 01:07:45;;;;;;;7.22;3.75;;;1.30;99.90;;;;;;7343424;32;20249;-56
2024/01/16 01:11:48;;;;;;;9.45;5.05;;;1.20;99.90;;;;;;7336257;32;20864;-55
2024/01/16 01:15:49;;;;;;;10.40;5.82;;;1.30;99.90;;;;;;7337815;32;20450;-56
2024/01/16 01:19:51;;;;;;;9.98;5.97;;;1.20;99.90;;;;;;7337816;32;20119;-55
2024/01/16 01:23:53;;;;;;;11.12;6.10;;;1.20;99.90;;;;;;7342525;32;20272;-56
2024/01/16 01:27:55;;;;;;;10.27;6.15;;;1.20;99.90;;;;;;7335362;32;20677;-56
2024/01/16 01:31:56;;;;;;;12.82;7.20;;;1.20;99.90;;;;;;7338015;32;20302;-57
2024/01/16 01:35:58;;;;;;;9.80;7.22;;;1.20;99.90;;;;;;7338606;32;20103;-55
2024/01/16 01:40:00;;;;;;;15.60;7.87;;;1.20;99.90;;;;;;7334128;32;20127;-56
2024/01/16 01:44:02;;;;;;;14.98;8.38;;;1.30;99.90;;;;;;7344904;32;20162;-57
2024/01/16 01:48:07;;;;;;;13.15;8.55;;;1.20;99.90;;;;;;7347173;32;20103;-56
2024/01/16 01:52:09;;;;;;;19.05;9.50;;;1.20;99.90;;;;;;7342538;32;20106;-55
2024/01/16 01:56:17;;;;;;;19.60;11.02;;;1.20;99.90;;;;;;7340548;32;20239;-57
2024/01/16 02:00:19;;;;;;;15.48;10.10;;;1.20;99.90;;;;;;7334485;32;20123;-56
2024/01/16 02:04:22;;;;;;;14.80;10.07;;;1.20;99.90;;;;;;7342374;32;20153;-55
2024/01/16 02:08:24;;;;;;;14.82;8.52;;;1.10;99.90;;;;;;7336459;32;20550;-56
2024/01/16 02:12:26;;;;;;;18.27;10.93;;;1.10;99.90;;;;;;7341374;32;20172;-56
2024/01/16 02:16:39;;;;;;;15.25;10.50;;;1.10;99.90;;;;;;7340521;32;20116;-55
2024/01/16 02:20:40;;;;;;;16.85;10.45;;;1.10;99.90;;;;;;7339131;32;20171;-55
2024/01/16 02:24:42;;;;;;;16.95;10.00;;;1.10;99.90;;;;;;7349122;32;20103;-55
2024/01/16 02:28:44;;;;;;;16.52;10.05;;;1.20;99.90;;;;;;7339230;32;20125;-55
2024/01/16 02:32:46;;;;;;;17.30;9.82;;;1.10;99.90;;;;;;7344370;32;20124;-55
2024/01/16 02:36:48;;;;;;;15.70;10.18;;;1.10;99.90;;;;;;7342933;32;20558;-55
2024/01/16 02:40:50;;;;;;;12.93;9.20;;;1.10;99.90;;;;;;7342232;32;20636;-55
2024/01/16 02:44:52;;;;;;;17.12;10.02;;;1.20;99.90;;;;;;7341339;32;20123;-54
2024/01/16 02:48:55;;;;;;;17.58;10.38;;;1.20;99.90;;;;;;7343104;32;20514;-59
2024/01/16 02:52:57;;;;;;;17.92;10.52;;;1.20;99.90;;;;;;7345144;32;20792;-54
2024/01/16 02:56:59;;;;;;;16.67;11.45;;;1.30;99.90;;;;;;7343311;32;20102;-55
2024/01/16 03:01:01;;;;;;;18.50;11.07;;;1.20;99.90;;;;;;7334069;32;20565;-55
2024/01/16 03:05:05;;;;;;;18.37;11.25;;;1.20;99.90;;;;;;7340342;32;20183;-55
2024/01/16 03:09:07;;;;;;;17.30;11.30;;;1.30;99.90;;;;;;7343307;32;20258;-55
2024/01/16 03:13:08;;;;;;;18.25;10.80;;;1.20;99.90;;;;;;7338463;32;20133;-55
2024/01/16 03:17:10;;;;;;;18.20;10.45;;;1.30;99.90;;;;;;7341433;32;20179;-55
2024/01/16 03:21:13;;;;;;;18.55;11.60;;;1.30;99.90;;;;;;7333510;32;20112;-56
2024/01/16 03:25:16;;;;;;;17.37;10.07;;;1.40;99.90;;;;;;7341099;32;23200;-55
2024/01/16 03:29:18;;;;;;;15.85;10.73;;;1.40;99.90;;;;;;7341230;32;20125;-56
2024/01/16 03:33:20;;;;;;;20.50;11.00;;;1.30;99.90;;;;;;7343223;32;20197;-55
2024/01/16 03:37:22;;;;;;;22.92;10.68;;;1.30;99.90;;;;;;7342532;32;20134;-55
2024/01/16 03:41:23;;;;;;;18.27;10.60;;;1.30;99.90;;;;;;7343321;32;20154;-55
2024/01/16 03:45:25;;;;;;;20.70;10.95;;;1.40;99.90;;;;;;7344480;32;20198;-56
2024/01/16 03:49:27;;;;;;;20.45;11.12;;;1.20;99.90;;;;;;7339090;32;20279;-56
2024/01/16 03:53:29;;;;;;;18.50;11.27;;;1.20;99.90;;;;;;7340705;32;20235;-56
2024/01/16 03:57:30;;;;;;;17.65;10.90;;;1.20;99.90;;;;;;7339670;32;20104;-55
2024/01/16 04:01:36;;;;;;;17.55;10.82;;;1.20;99.90;;;;;;7329879;32;20776;-55
2024/01/16 04:05:38;;;;;;;13.85;10.25;;;1.20;99.90;;;;;;7341065;32;20199;-57
2024/01/16 04:09:41;;;;;;;14.68;8.85;;;1.10;99.90;;;;;;7345899;32;20256;-55
2024/01/16 04:13:43;;;;;;;14.02;8.60;;;1.20;99.90;;;;;;7342369;32;20140;-56
2024/01/16 04:17:45;;;;;;;14.95;9.20;;;1.20;99.90;;;;;;7340921;32;20202;-56
2024/01/16 04:21:47;;;;;;;16.77;8.55;;;1.10;99.90;;;;;;7343471;32;20209;-55
2024/01/16 04:25:48;;;;;;;12.95;7.87;;;1.20;99.90;;;;;;7339180;32;20131;-56
2024/01/16 04:29:50;;;;;;;14.18;7.50;;;1.20;99.90;;;;;;7338433;32;20302;-55
2024/01/16 04:33:52;;;;;;;12.25;7.70;;;1.10;99.90;;;;;;7332752;32;20113;-55
2024/01/16 04:37:54;;;;;;;13.02;7.32;;;1.20;99.90;;;;;;7339522;32;20250;-56
2024/01/16 04:41:55;;;;;;;10.25;6.95;;;1.10;99.90;;;;;;7339066;32;20185;-55
2024/01/16 04:45:57;;;;;;;9.93;6.55;;;1.20;99.90;;;;;;7337165;32;20294;-55
2024/01/16 04:50:03;;;;;;;10.23;6.53;;;1.10;99.90;;;;;;7338048;32;20741;-55
2024/01/16 04:54:05;;;;;;;9.75;7.03;;;1.10;99.90;;;;;;7336776;32;20279;-55
2024/01/16 04:58:07;;;;;;;11.43;7.07;;;1.00;99.90;;;;;;7342465;32;20202;-56
2024/01/16 05:02:10;;;;;;;12.05;6.50;;;1.10;99.90;;;;;;7338098;32;20373;-56
2024/01/16 05:06:14;;;;;;;14.23;7.62;;;1.10;99.90;;;;;;7339165;32;20107;-57
2024/01/16 05:10:16;;;;;;;10.82;7.75;;;1.10;99.90;;;;;;7337385;32;20119;-55
2024/01/16 05:14:18;;;;;;;15.50;8.45;;;1.10;99.90;;;;;;7340064;32;20198;-55
2024/01/16 05:18:19;;;;;;;13.18;8.85;;;1.10;99.90;;;;;;7337587;32;20481;-55
2024/01/16 05:22:21;;;;;;;14.55;9.38;;;1.00;99.90;;;;;;7342931;32;20127;-55
2024/01/16 05:26:23;;;;;;;16.00;10.05;;;1.10;99.90;;;;;;7336246;32;20132;-55
2024/01/16 05:30:25;;;;;;;16.98;10.73;;;1.00;99.90;;;;;;7337976;32;20178;-56
2024/01/16 05:34:28;;;;;;;13.95;10.02;;;1.00;99.90;;;;;;7341424;32;20104;-54
2024/01/16 05:38:30;;;;;;;15.15;10.23;;;1.00;99.90;;;;;;7339936;32;20103;-56
2024/01/16 05:42:32;;;;;;;15.52;10.07;;;1.00;99.90;;;;;;7348484;32;20249;-55
2024/01/16 05:46:34;;;;;;;15.50;9.65;;;1.00;99.90;;;;;;7334832;32;20222;-55
2024/01/16 05:50:37;;;;;;;16.52;9.90;;;1.00;99.90;;;;;;7339265;32;20471;-55
2024/01/16 05:54:39;;;;;;;17.42;8.93;;;1.00;99.90;;;;;;7342863;32;20174;-56
2024/01/16 05:58:40;;;;;;;13.95;9.00;;;1.00;99.90;;;;;;7345509;32;20200;-54
2024/01/16 06:02:42;;;;;;;14.77;8.80;;;0.90;99.90;;;;;;7344339;32;20162;-55
2024/01/16 06:06:45;;;;;;;16.87;7.87;;;0.90;99.90;;;;;;7341744;32;20163;-55
2024/01/16 06:10:47;;;;;;;16.55;7.57;;;0.90;99.90;;;;;;7339718;32;20150;-56
2024/01/16 06:14:49;;;;;;;19.98;6.85;;;0.70;99.90;;;;;;7342993;32;20229;-55
2024/01/16 06:18:50;;;;;;;15.30;6.07;;;0.70;99.90;;;;;;7347227;32;20546;-55
2024/01/16 06:22:52;;;;;;;16.58;5.85;;;0.60;99.90;;;;;;7343604;32;20111;-55
2024/01/16 06:26:54;;;;;;;15.55;5.78;;;0.60;99.90;;;;;;7337408;32;20187;-55
2024/01/16 06:30:56;;;;;;;12.70;5.85;;;0.50;99.90;;;;;;7341732;32;20155;-55
2024/01/16 06:34:57;;;;;;;13.75;6.00;;;0.50;99.90;;;;;;7337061;32;20692;-56
2024/01/16 06:38:59;;;;;;;16.33;5.45;;;0.50;99.90;;;;;;7334208;32;20130;-55
2024/01/16 06:43:01;;;;;;;13.85;5.50;;;0.40;99.90;;;;;;7337567;32;20107;-56
2024/01/16 06:47:03;;;;;;;15.25;4.65;;;0.40;99.90;;;;;;7333908;32;20248;-55
2024/01/16 06:51:05;;;;;;;12.93;4.70;;;0.30;99.90;;;;;;7337312;32;20127;-56
2024/01/16 06:55:07;;;;;;;7.78;3.95;;;0.40;99.90;;;;;;7344620;32;20251;-54
2024/01/16 06:59:09;;;;;;;20.75;5.12;;;0.30;99.90;;;;;;7340082;32;20104;-56
2024/01/16 07:03:13;;;;;;;9.43;4.22;;;0.30;99.90;;;;;;7339485;32;20118;-55
2024/01/16 07:07:15;;;;;;;11.68;4.45;;;0.30;99.90;;;;;;7342134;32;20812;-54
2024/01/16 07:11:17;;;;;;;11.80;3.92;;;0.20;99.90;;;;;;7340013;32;20249;-55
2024/01/16 07:15:20;;;;;;;11.65;4.12;;;0.20;99.90;;;;;;7345263;32;20126;-58
2024/01/16 07:19:22;;;;;;;11.63;3.78;;;0.10;99.90;;;;;;7335600;32;20122;-55
2024/01/16 07:23:24;;;;;;;11.73;3.87;;;0.20;99.90;;;;;;7335576;32;20141;-57
2024/01/16 07:27:25;;;;;;;12.05;3.85;;;0.20;99.90;;;;;;7335677;32;20128;-55
2024/01/16 07:31:27;;;;;;;11.35;3.25;;;0.20;99.90;;;;;;7333352;32;20207;-57
2024/01/16 07:35:29;;;;;;;9.68;3.00;;;0.20;99.90;;;;;;7338773;32;20099;-55
2024/01/16 07:39:31;;;;;;;15.40;3.22;;;0.20;99.90;;;;;;7343595;32;20242;-55
2024/01/16 07:43:34;;;;;;;9.25;2.67;;;0.30;99.90;;;;;;7341677;32;20107;-56
2024/01/16 07:47:36;;;;;;;10.07;2.62;;;0.30;99.90;;;;;;7334097;32;20223;-58
2024/01/16 07:51:38;;;;;;;10.90;2.47;;;0.40;99.90;;;;;;7333991;32;20217;-56
2024/01/16 07:55:39;;;;;;;15.05;2.90;;;0.40;99.90;;;;;;7342172;32;20294;-56
2024/01/16 07:59:41;;;;;;;10.68;2.15;;;0.50;99.90;;;;;;7333465;32;20108;-57
2024/01/16 08:03:43;;;;;;;9.52;2.62;;;0.50;99.90;;;;;;7341835;32;20739;-56
2024/01/16 08:07:45;;;;;;;7.03;2.45;;;0.50;99.90;;;;;;7338066;32;20157;-56
2024/01/16 08:11:47;;;;;;;9.60;2.35;;;0.50;99.90;;;;;;7342365;32;20171;-57
2024/01/16 08:15:49;;;;;;;9.07;2.40;;;0.60;99.90;;;;;;7344178;32;20790;-58
2024/01/16 08:19:51;;;;;;;9.77;2.17;;;0.60;99.90;;;;;;7338071;32;20202;-56
2024/01/16 08:23:52;;;;;;;9.15;2.47;;;0.60;99.90;;;;;;7346058;32;20107;-55
2024/01/16 08:27:54;;;;;;;11.32;2.85;;;0.70;99.90;;;;;;7344966;32;20240;-57
2024/01/16 08:31:56;;;;;;;6.43;2.22;;;0.70;99.90;;;;;;7333766;32;20131;-58
2024/01/16 08:35:58;;;;;;;9.98;2.45;;;0.70;99.90;;;;;;7340827;32;20222;-57
2024/01/16 08:40:00;;;;;;;6.10;2.45;;;0.70;99.90;;;;;;7338885;32;20259;-56
2024/01/16 08:44:02;;;;;;;5.65;2.58;;;0.70;99.90;;;;;;7349821;32;20117;-56
2024/01/16 08:48:04;;;;;;;11.50;2.70;;;0.70;99.90;;;;;;7341974;32;20100;-56
2024/01/16 08:52:06;;;;;;;8.13;1.85;;;0.70;99.90;;;;;;7342953;32;20143;-56
2024/01/16 08:56:08;;;;;;;8.15;2.58;;;0.80;99.90;;;;;;7346918;32;20648;-56
2024/01/16 09:00:12;;;;;;;5.50;1.87;;;0.80;99.90;;;;;;7336575;32;20124;-58
2024/01/16 09:04:14;;;;;;;8.45;2.45;;;0.80;99.90;;;;;;7334974;32;20151;-56
2024/01/16 09:08:16;;;;;;;7.18;2.10;;;0.80;99.90;;;;;;7349944;32;20157;-56
2024/01/16 09:12:17;;;;;;;10.02;2.55;;;0.90;99.90;;;;;;7345732;32;20116;-56
2024/01/16 09:16:19;;;;;;;7.25;2.87;;;0.90;99.90;;;;;;7348758;32;20147;-57
2024/01/16 09:20:21;;;;;;;7.75;2.45;;;0.90;99.90;;;;;;7338771;32;20559;-56
2024/01/16 09:24:23;;;;;;;9.60;2.42;;;1.00;99.90;;;;;;7344544;32;20108;-56
2024/01/16 09:28:25;;;;;;;7.95;2.47;;;1.00;99.90;;;;;;7338913;32;20191;-57
2024/01/16 09:32:26;;;;;;;5.15;2.00;;;1.00;99.90;;;;;;7340174;32;20104;-56
2024/01/16 09:36:28;;;;;;;11.05;2.85;;;1.00;99.90;;;;;;7335120;32;20108;-57
2024/01/16 09:40:30;;;;;;;11.88;3.10;;;1.00;99.90;;;;;;7340997;32;20167;-56
2024/01/16 09:44:32;;;;;;;9.10;2.95;;;1.00;99.90;;;;;;7331650;32;20227;-57
2024/01/16 09:48:34;;;;;;;9.23;2.42;;;1.00;99.90;;;;;;7334372;32;20133;-55
2024/01/16 09:52:36;;;;;;;7.45;2.40;;;1.10;99.90;;;;;;7335321;32;20156;-56
2024/01/16 09:56:43;;;;;;;10.10;2.87;;;1.10;99.90;;;;;;7326638;32;20202;-57
2024/01/16 10:00:46;;;;;;;;;;;1.10;99.90;;;;;;7337734;32;20158;-57
2024/01/16 10:04:48;;;;;;;9.10;2.55;;;1.30;99.90;;;;;;7340148;32;20147;-56
2024/01/16 10:08:49;;;;;;;7.82;2.90;;;1.30;99.90;;;;;;7344439;32;20134;-58
2024/01/16 10:12:53;;;;;;;9.07;2.65;;;1.40;99.90;;;;;;7344263;32;20517;-58
2024/01/16 10:17:05;;;;;;;6.15;2.60;;;1.20;99.90;;;;;;7347849;32;20216;-56
2024/01/16 10:21:29;;;;;;;21.35;3.25;;;1.20;99.90;;;;;;7346571;32;20138;-56
2024/01/16 10:25:31;;;;;;;7.57;2.97;;;1.40;99.90;;;;;;7346431;32;20612;-57
2024/01/16 10:29:33;;;;;;;12.50;3.30;;;1.50;99.90;;;;;;7349270;32;20579;-57
2024/01/16 10:33:54;;;;;;;8.25;3.30;;;1.70;99.90;;;;;;7349307;32;20103;-57
2024/01/16 10:37:56;;;;;;;8.90;2.62;;;1.70;99.90;;;;;;7351779;32;20103;-55
2024/01/16 10:41:58;;;;;;;12.10;3.20;;;1.80;99.90;;;;;;7346154;32;20216;-57
2024/01/16 10:46:14;;;;;;;8.85;3.00;;;2.10;99.90;;;;;;7340808;32;20198;-57
2024/01/16 10:50:16;;;;;;;7.15;2.53;;;2.10;99.90;;;;;;7345825;32;20661;-58
2024/01/16 10:54:19;;;;;;;8.48;2.80;;;1.90;99.90;;;;;;7338855;32;20237;-55
2024/01/16 10:58:23;;;;;;;7.25;2.72;;;1.70;99.90;;;;;;7349139;32;20535;-57
2024/01/16 11:02:40;;;;;;;6.12;2.62;;;1.60;99.90;;;;;;7338463;32;20103;-58
2024/01/16 11:06:43;;;;;;;10.40;3.10;;;1.70;99.90;;;;;;7341057;32;20466;-57
2024/01/16 11:10:47;;;;;;;7.57;2.50;;;1.70;99.90;;;;;;7344450;32;20111;-57
2024/01/16 11:14:51;;;;;;;7.10;2.62;;;1.80;99.90;;;;;;7340186;32;20111;-57
2024/01/16 11:18:53;;;;;;;12.30;3.30;;;1.80;99.90;;;;;;7342041;32;20229;-56
2024/01/16 11:22:59;;;;;;;4.95;2.37;;;1.80;99.90;;;;;;7344373;32;20209;-58
2024/01/16 11:27:01;;;;;;;9.82;3.10;;;1.80;99.90;;;;;;7347093;32;20578;-58
2024/01/16 11:31:34;;;;;;;6.72;2.80;;;1.90;99.90;;;;;;7343272;32;21860;-58
2024/01/16 11:35:38;;;;;;;10.20;2.83;;;2.10;99.90;;;;;;7343939;32;20592;-58
2024/01/16 11:39:42;;;;;;;6.60;2.60;;;2.20;99.90;;;;;;7344219;32;20468;-57
2024/01/16 11:43:44;;;;;;;8.70;2.42;;;2.10;99.90;;;;;;7340689;32;20122;-57
2024/01/16 11:47:46;;;;;;;13.30;2.90;;;2.10;99.90;;;;;;7345613;32;20259;-57
2024/01/16 11:51:48;;;;;;;10.18;2.95;;;2.00;99.90;;;;;;7340090;32;20278;-57
2024/01/16 11:55:59;;;;;;;7.03;2.67;;;1.90;99.90;;;;;;7342799;32;20139;-56
2024/01/16 12:00:14;;;;;;;10.57;2.78;;;1.80;99.90;;;;;;7345205;32;20112;-57
2024/01/16 12:04:18;;;;;;;11.02;2.92;;;1.80;99.90;;;;;;7341447;32;20198;-57
2024/01/16 12:08:21;;;;;;;8.23;2.90;;;1.70;99.90;;;;;;7344509;32;20677;-57
2024/01/16 12:12:23;;;;;;;13.68;2.87;;;1.80;99.90;;;;;;7344265;32;20709;-57
2024/01/16 12:16:25;;;;;;;8.32;2.60;;;1.80;99.90;;;;;;7346122;32;20255;-58
2024/01/16 12:20:32;;;;;;;9.32;3.10;;;1.90;99.90;;;;;;7336808;32;20465;-56
2024/01/16 12:24:34;;;;;;;18.65;3.42;;;1.90;99.90;;;;;;7342317;32;20143;-57
2024/01/16 12:28:36;;;;;;;11.25;3.00;;;1.90;99.90;;;;;;7341178;32;20104;-57
2024/01/16 12:32:38;;;;;;;10.27;3.20;;;1.90;99.90;;;;;;7344702;32;20112;-57
2024/01/16 12:36:39;;;;;;;7.95;2.78;;;1.80;99.90;;;;;;7335811;32;20143;-57
2024/01/16 12:40:52;;;;;;;10.35;3.20;;;1.80;99.90;;;;;;7335456;32;20229;-57
2024/01/16 12:44:54;;;;;;;9.00;3.15;;;1.90;99.90;;;;;;7343151;32;20155;-56
2024/01/16 12:49:03;;;;;;;8.13;2.83;;;1.90;99.90;;;;;;7330076;32;20203;-56
2024/01/16 12:53:11;;;;;;;9.55;2.85;;;1.80;99.90;;;;;;7342876;32;20549;-56
2024/01/16 12:57:19;;;;;;;11.90;2.97;;;2.00;99.90;;;;;;7338735;32;20122;-56
2024/01/16 13:01:31;;;;;;;5.78;3.05;;;1.90;99.90;;;;;;7338094;32;20227;-56
2024/01/16 13:05:42;;;;;;;10.82;3.10;;;2.00;99.90;;;;;;7338354;32;20096;-55
2024/01/16 13:09:44;;;;;;;8.15;3.17;;;2.00;99.90;;;;;;7337127;32;20107;-56
2024/01/16 13:13:51;;;;;;;10.00;3.10;;;2.10;99.90;;;;;;7341989;32;20441;-56
2024/01/16 13:17:53;;;;;;;7.65;2.92;;;2.10;99.90;;;;;;7334880;32;20179;-55
2024/01/16 13:21:55;;;;;;;7.57;3.10;;;2.10;99.90;;;;;;7335928;32;20228;-56
2024/01/16 13:26:03;;;;;;;10.32;3.30;;;2.10;99.90;;;;;;7342196;32;20500;-55
2024/01/16 13:30:05;;;;;;;6.93;3.28;;;2.10;99.90;;;;;;7323851;32;20182;-59
2024/01/16 13:34:08;;;;;;;6.20;2.90;;;2.00;99.90;;;;;;7338936;32;20484;-56
2024/01/16 13:38:12;;;;;;;9.57;3.12;;;1.90;99.90;;;;;;7340333;32;20151;-57
2024/01/16 13:42:18;;;;;;;9.82;3.08;;;1.90;99.90;;;;;;7341584;32;20229;-57
2024/01/16 13:46:19;;;;;;;7.03;2.95;;;2.00;99.90;;;;;;7346427;32;20475;-57
2024/01/16 13:50:41;;;;;;;6.03;3.03;;;2.20;99.90;;;;;;7339911;32;20253;-57
2024/01/16 13:54:43;;;;;;;10.75;3.80;;;2.30;99.90;;;;;;7339093;32;20543;-57
2024/01/16 13:58:45;;;;;;;9.13;3.17;;;2.10;99.90;;;;;;7343047;32;20605;-57
2024/01/16 14:02:48;;;;;;;15.98;3.20;;;2.10;99.90;;;;;;7342376;32;20218;-57
2024/01/16 14:06:51;;;;;;;7.15;3.03;;;2.00;99.90;;;;;;7346605;32;20713;-57
2024/01/16 14:11:12;;;;;;;7.55;3.12;;;1.80;99.90;;;;;;7345459;32;20119;-57
2024/01/16 14:15:16;;;;;;;6.00;3.00;;;1.90;99.90;;;;;;7349306;32;20117;-57
2024/01/16 14:19:18;;;;;;;10.68;3.17;;;2.20;99.90;;;;;;7346844;32;20259;-58
2024/01/16 14:23:20;;;;;;;9.50;3.37;;;2.50;99.90;;;;;;7351439;32;20460;-58
2024/01/16 14:27:22;;;;;;;7.93;2.80;;;2.60;99.90;;;;;;7343964;32;20170;-56
2024/01/16 14:31:27;;;;;;;8.00;3.22;;;2.30;99.90;;;;;;7349872;32;20565;-57
2024/01/16 14:35:28;;;;;;;7.68;2.87;;;2.10;99.90;;;;;;7351164;32;20127;-57
2024/01/16 14:39:31;;;;;;;6.60;2.67;;;1.90;99.90;;;;;;7342092;32;20117;-57
2024/01/16 14:43:33;;;;;;;9.73;3.15;;;1.90;99.90;;;;;;7345432;32;20594;-56
2024/01/16 14:47:35;;;;;;;7.47;3.30;;;1.70;99.90;;;;;;7331444;32;20190;-57
2024/01/16 14:51:37;;;;;;;11.12;2.92;;;1.60;99.90;;;;;;7343920;32;20619;-56
2024/01/16 14:55:39;;;;;;;8.07;2.78;;;1.50;99.90;;;;;;7347697;32;20209;-57
2024/01/16 14:59:41;;;;;;;12.32;2.90;;;1.40;99.90;;;;;;7344430;32;20580;-56
2024/01/16 15:03:43;;;;;;;9.85;3.30;;;1.30;99.90;;;;;;7344161;32;20119;-57
2024/01/16 15:07:46;;;;;;;9.95;2.97;;;1.10;99.90;;;;;;7343224;32;20143;-57
2024/01/16 15:11:48;;;;;;;7.72;3.25;;;1.10;99.90;;;;;;7336540;32;20116;-56
2024/01/16 15:15:51;;;;;;;6.28;2.70;;;1.00;99.90;;;;;;7341239;32;20122;-56
2024/01/16 15:19:53;;;;;;;7.25;2.97;;;0.90;99.90;;;;;;7345848;32;20171;-57
2024/01/16 15:23:55;;;;;;;7.10;2.47;;;0.90;99.90;;;;;;7344438;32;20151;-55
2024/01/16 15:27:57;;;;;;;9.52;2.97;;;0.80;99.90;;;;;;7342199;32;20141;-57
2024/01/16 15:31:59;;;;;;;7.80;2.97;;;0.70;99.90;;;;;;7340617;32;20194;-56
2024/01/16 15:36:01;;;;;;;6.22;2.67;;;0.60;99.90;;;;;;7340308;32;20407;-56
2024/01/16 15:40:06;;;;;;;14.93;3.67;;;0.60;99.90;;;;;;7337780;32;20115;-55
2024/01/16 15:44:09;;;;;;;9.45;3.40;;;0.40;99.90;;;;;;7335520;32;20217;-56
2024/01/16 15:48:13;;;;;;;7.32;2.90;;;0.40;99.90;;;;;;7334966;32;20117;-56
2024/01/16 15:52:15;;;;;;;10.40;2.87;;;0.30;99.90;;;;;;7338301;32;20134;-56
2024/01/16 15:56:17;;;;;;;10.60;3.12;;;0.30;99.90;;;;;;7332185;32;20138;-56
2024/01/16 16:00:20;;;;;;;5.30;2.95;;;0.20;99.90;;;;;;7336085;32;20210;-56
2024/01/16 16:04:23;;;;;;;7.37;3.33;;;0.20;99.90;;;;;;7341196;32;20256;-55
2024/01/16 16:08:25;;;;;;;7.43;3.00;;;0.10;99.90;;;;;;7340149;32;20134;-55
2024/01/16 16:12:27;;;;;;;11.82;3.10;;;0.10;99.90;;;;;;7339499;32;20126;-54
2024/01/16 16:16:29;;;;;;;8.00;2.83;;;0.10;99.90;;;;;;7333122;32;20124;-56
2024/01/16 16:20:30;;;;;;;12.93;3.08;;;0.00;99.90;;;;;;7333192;32;20171;-56
2024/01/16 16:24:34;;;;;;;7.72;3.22;;;-0.10;99.90;;;;;;7337413;32;20164;-56
2024/01/16 16:28:37;;;;;;;17.08;3.00;;;-0.20;99.90;;;;;;7337213;32;20640;-56
2024/01/16 16:32:39;;;;;;;6.10;2.62;;;-0.30;99.90;;;;;;7334199;32;20218;-56
2024/01/16 16:36:54;;;;;;;5.95;2.30;;;-0.40;99.90;;;;;;7335787;32;20121;-56
2024/01/16 16:40:56;;;;;;;7.07;3.00;;;-0.40;99.90;;;;;;7329407;32;20796;-56
2024/01/16 16:44:59;;;;;;;8.43;4.07;;;-0.50;99.90;;;;;;7331730;32;20343;-56
2024/01/16 16:49:01;;;;;;;9.15;4.85;;;-0.60;99.90;;;;;;7339726;32;20210;-56
2024/01/16 16:53:03;;;;;;;12.30;5.43;;;-0.60;99.90;;;;;;7340895;32;20142;-56
2024/01/16 16:57:05;;;;;;;9.80;3.62;;;-0.70;99.90;;;;;;7340030;32;20757;-57
2024/01/16 17:01:06;;;;;;;11.45;3.60;;;-0.70;99.90;;;;;;7338519;32;20143;-56
2024/01/16 17:05:09;;;;;;;10.68;4.03;;;-0.80;99.90;;;;;;7332866;32;20427;-56
2024/01/16 17:09:11;;;;;;;8.70;3.80;;;-0.70;99.90;;;;;;7335186;32;20254;-56
2024/01/16 17:13:14;;;;;;;9.57;4.75;;;-0.80;99.90;;;;;;7342721;32;20554;-57
2024/01/16 17:17:16;;;;;;;11.40;5.22;;;-0.80;99.90;;;;;;7329189;32;20495;-56
2024/01/16 17:21:17;;;;;;;11.75;5.28;;;-0.70;99.90;;;;;;7330422;32;20127;-57
2024/01/16 17:25:19;;;;;;;12.52;4.68;;;-0.80;99.90;;;;;;7339763;32;20205;-56
2024/01/16 17:29:21;;;;;;;10.25;5.25;;;-0.90;99.90;;;;;;7338994;32;20187;-55
2024/01/16 17:33:23;;;;;;;9.10;4.07;;;-0.80;99.90;;;;;;7335995;32;20202;-56
2024/01/16 17:37:25;;;;;;;12.02;4.68;;;-0.90;99.90;;;;;;7340644;32;20139;-56
2024/01/16 17:41:28;;;;;;;12.37;5.03;;;-0.90;99.90;;;;;;7337442;32;20155;-62
2024/01/16 17:45:31;;;;;;;13.30;4.90;;;-0.80;99.90;;;;;;7338563;32;20130;-62
2024/01/16 17:49:33;;;;;;;12.00;4.85;;;-0.80;99.90;;;;;;7334873;32;20578;-69
2024/01/16 17:53:35;;;;;;;11.90;5.28;;;-0.80;99.90;;;;;;7342523;32;20516;-69
2024/01/16 17:57:40;;;;;;;14.07;6.60;;;-0.90;99.90;;;;;;7338916;32;20099;-55
2024/01/16 18:01:42;;;;;;;12.48;5.78;;;-0.90;99.90;;;;;;7338614;32;20158;-55
2024/01/16 18:05:44;;;;;;;11.65;5.18;;;-0.80;99.90;;;;;;7339938;32;20505;-55
2024/01/16 18:09:46;;;;;;;10.85;5.55;;;-0.80;99.90;;;;;;7339038;32;20254;-56
2024/01/16 18:13:49;;;;;;;16.25;5.47;;;-0.90;99.90;;;;;;7347182;32;20131;-55
2024/01/16 18:17:51;;;;;;;10.82;4.70;;;-1.10;99.90;;;;;;7331719;32;20194;-56
2024/01/16 18:21:55;;;;;;;10.18;5.00;;;-1.10;99.90;;;;;;7336945;32;20108;-56
2024/01/16 18:25:56;;;;;;;17.98;5.37;;;-1.20;99.90;;;;;;7334744;32;20241;-57
2024/01/16 18:30:04;;;;;;;11.68;5.50;;;-1.20;99.90;;;;;;7338621;32;20103;-58
2024/01/16 18:34:09;;;;;;;14.50;5.10;;;-1.40;99.90;;;;;;7341008;32;20608;-56
2024/01/16 18:38:13;;;;;;;11.27;5.18;;;-1.20;99.90;;;;;;7335717;32;20622;-56
2024/01/16 18:42:15;;;;;;;11.40;5.55;;;-1.30;99.90;;;;;;7336030;32;20122;-56
2024/01/16 18:46:18;;;;;;;11.85;5.65;;;-1.30;99.90;;;;;;7338561;32;20202;-56
2024/01/16 18:50:24;;;;;;;11.80;5.37;;;-1.30;99.90;;;;;;7329618;32;20245;-56
2024/01/16 18:54:27;;;;;;;10.23;5.40;;;-1.40;99.90;;;;;;7338148;32;20115;-57
2024/01/16 18:58:28;;;;;;;14.52;5.85;;;-1.50;99.90;;;;;;7330070;32;20705;-56
2024/01/16 19:02:30;;;;;;;11.18;5.87;;;-1.60;99.90;;;;;;7336015;32;20891;-56
2024/01/16 19:06:32;;;;;;;15.95;6.07;;;-1.50;99.90;;;;;;7328688;32;20100;-56
2024/01/16 19:10:34;;;;;;;15.23;5.87;;;-1.60;99.90;;;;;;7337052;32;20203;-55
2024/01/16 19:14:36;;;;;;;13.62;5.60;;;-1.70;99.90;;;;;;7340094;32;20114;-56
2024/01/16 19:18:40;;;;;;;9.30;5.28;;;-1.60;99.90;;;;;;7336815;32;20206;-56
2024/01/16 19:22:44;;;;;;;10.55;5.40;;;-1.70;99.90;;;;;;7343372;32;20126;-56
2024/01/16 19:26:46;;;;;;;12.30;4.80;;;-1.70;99.90;;;;;;7338049;32;20119;-56
2024/01/16 19:30:49;;;;;;;13.48;5.40;;;-1.70;99.90;;;;;;7339145;32;20258;-56
2024/01/16 19:34:51;;;;;;;12.60;5.07;;;-1.70;99.90;;;;;;7338952;32;20884;-59
2024/01/16 19:38:53;;;;;;;11.32;5.07;;;-1.70;99.90;;;;;;7336455;32;20243;-55
2024/01/16 19:42:55;;;;;;;8.57;4.37;;;-1.70;99.90;;;;;;7331824;32;20119;-56
2024/01/16 19:46:56;;;;;;;7.90;4.70;;;-1.80;99.90;;;;;;7334821;32;20380;-54
2024/01/16 19:50:59;;;;;;;12.07;4.70;;;-1.70;99.90;;;;;;7340416;32;20201;-55
2024/01/16 19:55:05;;;;;;;10.35;4.20;;;-1.80;99.90;;;;;;7340977;32;20174;-55
2024/01/16 19:59:07;;;;;;;9.25;4.05;;;-1.60;99.90;;;;;;7339664;32;20713;-54
2024/01/16 20:03:11;;;;;;;13.40;3.90;;;-1.70;99.90;;;;;;7336860;32;20115;-55
2024/01/16 20:07:13;;;;;;;10.88;4.22;;;-1.60;99.90;;;;;;7333751;32;20632;-55
2024/01/16 20:11:23;;;;;;;7.20;3.70;;;-1.50;99.90;;;;;;7339690;32;20298;-54
2024/01/16 20:15:27;;;;;;;11.02;4.40;;;-1.50;99.90;;;;;;7341107;32;20221;-55
2024/01/16 20:19:29;;;;;;;9.98;4.30;;;-1.60;99.90;;;;;;7336220;32;20103;-55
2024/01/16 20:23:32;;;;;;;10.00;4.20;;;-1.70;99.90;;;;;;7344115;32;20126;-55
2024/01/16 20:27:34;;;;;;;9.52;4.37;;;-1.70;99.90;;;;;;7342640;32;20192;-55
2024/01/16 20:31:38;;;;;;;10.00;4.35;;;-1.80;99.90;;;;;;7338124;32;20161;-55
2024/01/16 20:35:40;;;;;;;9.13;4.30;;;-1.80;99.90;;;;;;7340120;32;20112;-55
2024/01/16 20:39:41;;;;;;;10.73;4.28;;;-1.80;99.90;;;;;;7333833;32;20111;-54
2024/01/16 20:43:43;;;;;;;11.55;4.57;;;-1.90;99.90;;;;;;7338130;32;20543;-56
2024/01/16 20:47:45;;;;;;;8.23;4.30;;;-1.80;99.90;;;;;;7337248;32;20236;-55
2024/01/16 20:51:47;;;;;;;9.18;4.70;;;-1.70;99.90;;;;;;7341308;32;20786;-55
2024/01/16 20:55:49;;;;;;;11.88;4.32;;;-1.80;99.90;;;;;;7338182;32;20336;-55
2024/01/16 20:59:51;;;;;;;11.90;4.37;;;-1.80;99.90;;;;;;7340541;32;20263;-55
2024/01/16 21:03:52;;;;;;;7.72;4.00;;;-1.80;99.90;;;;;;7336192;32;20274;-55
2024/01/16 21:07:54;;;;;;;11.77;5.05;;;-1.90;99.90;;;;;;7337673;32;20126;-55